sensor_id;sensor_type;location;lat;lon;timestamp;P1;durP1;ratioP1;P2;durP2;ratioP2
9536;SDS011;4807;48.024;11.726;2023-05-01T00:00:33;3.67;;;3.37;;
9536;SDS011;4807;48.024;11.726;2023-05-01T00:03:44;4.20;;;3.10;;
9536;SDS011;4807;48.024;11.726;2023-05-01T00:06:53;4.77;;;2.60;;
9536;SDS011;4807;48.024;11.726;2023-05-01T00:10:02;3.20;;;2.93;;
9536;SDS011;4807;48.024;11.726;2023-05-01T00:13:13;3.27;;;2.83;;
9536;SDS011;4807;48.024;11.726;2023-05-01T00:16:23;3.00;;;2.67;;
9536;SDS011;4807;48.024;11.726;2023-05-01T00:19:33;2.70;;;2.50;;
9536;SDS011;4807;48.024;11.726;2023-05-01T00:22:42;4.80;;;3.03;;
9536;SDS011;4807;48.024;11.726;2023-05-01T00:25:51;2.60;;;2.40;;
9536;SDS011;4807;48.024;11.726;2023-05-01T00:28:59;3.73;;;3.33;;
9536;SDS011;4807;48.024;11.726;2023-05-01T00:32:08;4.57;;;3.03;;
9536;SDS011;4807;48.024;11.726;2023-05-01T00:35:18;4.33;;;2.73;;
9536;SDS011;4807;48.024;11.726;2023-05-01T00:38:27;3.17;;;2.87;;
9536;SDS011;4807;48.024;11.726;2023-05-01T00:41:35;4.67;;;3.00;;
9536;SDS011;4807;48.024;11.726;2023-05-01T00:44:44;3.57;;;2.93;;
9536;SDS011;4807;48.024;11.726;2023-05-01T00:47:52;3.10;;;2.87;;
9536;SDS011;4807;48.024;11.726;2023-05-01T00:51:03;3.30;;;2.70;;
9536;SDS011;4807;48.024;11.726;2023-05-01T00:54:13;3.80;;;2.77;;
9536;SDS011;4807;48.024;11.726;2023-05-01T00:57:23;3.53;;;3.23;;
9536;SDS011;4807;48.024;11.726;2023-05-01T01:00:32;3.20;;;3.00;;
9536;SDS011;4807;48.024;11.726;2023-05-01T01:03:41;3.57;;;3.27;;
9536;SDS011;4807;48.024;11.726;2023-05-01T01:06:54;5.23;;;3.53;;
9536;SDS011;4807;48.024;11.726;2023-05-01T01:10:11;3.97;;;3.57;;
9536;SDS011;4807;48.024;11.726;2023-05-01T01:13:28;3.53;;;3.23;;
9536;SDS011;4807;48.024;11.726;2023-05-01T01:16:40;3.60;;;2.83;;
9536;SDS011;4807;48.024;11.726;2023-05-01T01:23:49;3.67;;;3.37;;
9536;SDS011;4807;48.024;11.726;2023-05-01T01:27:25;4.63;;;3.00;;
9536;SDS011;4807;48.024;11.726;2023-05-01T01:31:10;3.43;;;3.07;;
9536;SDS011;4807;48.024;11.726;2023-05-01T01:34:25;3.57;;;3.23;;
9536;SDS011;4807;48.024;11.726;2023-05-01T01:37:39;3.20;;;2.97;;
9536;SDS011;4807;48.024;11.726;2023-05-01T01:40:54;3.47;;;3.17;;
9536;SDS011;4807;48.024;11.726;2023-05-01T01:44:07;3.30;;;3.00;;
9536;SDS011;4807;48.024;11.726;2023-05-01T01:47:20;3.37;;;2.87;;
9536;SDS011;4807;48.024;11.726;2023-05-01T01:50:35;3.57;;;3.03;;
9536;SDS011;4807;48.024;11.726;2023-05-01T01:53:48;4.60;;;3.70;;
9536;SDS011;4807;48.024;11.726;2023-05-01T01:57:00;3.93;;;3.30;;
9536;SDS011;4807;48.024;11.726;2023-05-01T02:00:10;3.10;;;2.83;;
9536;SDS011;4807;48.024;11.726;2023-05-01T02:03:28;3.10;;;2.80;;
9536;SDS011;4807;48.024;11.726;2023-05-01T02:06:40;3.27;;;2.80;;
9536;SDS011;4807;48.024;11.726;2023-05-01T02:09:52;3.33;;;3.00;;
9536;SDS011;4807;48.024;11.726;2023-05-01T02:13:04;2.70;;;2.50;;
9536;SDS011;4807;48.024;11.726;2023-05-01T02:16:14;4.27;;;3.03;;
9536;SDS011;4807;48.024;11.726;2023-05-01T02:19:23;3.30;;;3.00;;
9536;SDS011;4807;48.024;11.726;2023-05-01T02:22:34;3.67;;;3.37;;
9536;SDS011;4807;48.024;11.726;2023-05-01T02:25:44;3.63;;;3.20;;
9536;SDS011;4807;48.024;11.726;2023-05-01T02:28:55;3.80;;;3.50;;
9536;SDS011;4807;48.024;11.726;2023-05-01T02:32:04;3.70;;;3.40;;
9536;SDS011;4807;48.024;11.726;2023-05-01T02:35:14;4.43;;;3.00;;
9536;SDS011;4807;48.024;11.726;2023-05-01T02:38:25;4.43;;;4.03;;
9536;SDS011;4807;48.024;11.726;2023-05-01T02:41:34;3.80;;;3.47;;
9536;SDS011;4807;48.024;11.726;2023-05-01T02:44:47;4.00;;;3.20;;
9536;SDS011;4807;48.024;11.726;2023-05-01T02:48:01;3.70;;;3.40;;
9536;SDS011;4807;48.024;11.726;2023-05-01T02:51:14;3.57;;;3.20;;
9536;SDS011;4807;48.024;11.726;2023-05-01T02:54:25;3.87;;;3.47;;
9536;SDS011;4807;48.024;11.726;2023-05-01T02:57:36;3.87;;;3.37;;
9536;SDS011;4807;48.024;11.726;2023-05-01T03:00:45;3.87;;;3.33;;
9536;SDS011;4807;48.024;11.726;2023-05-01T03:03:57;3.30;;;3.10;;
9536;SDS011;4807;48.024;11.726;2023-05-01T03:07:06;3.43;;;3.10;;
9536;SDS011;4807;48.024;11.726;2023-05-01T03:10:15;3.47;;;3.17;;
9536;SDS011;4807;48.024;11.726;2023-05-01T03:13:24;3.03;;;2.70;;
9536;SDS011;4807;48.024;11.726;2023-05-01T03:16:33;3.43;;;3.03;;
9536;SDS011;4807;48.024;11.726;2023-05-01T03:19:41;2.77;;;2.57;;
9536;SDS011;4807;48.024;11.726;2023-05-01T03:22:49;2.60;;;2.40;;
9536;SDS011;4807;48.024;11.726;2023-05-01T03:25:59;3.30;;;3.00;;
9536;SDS011;4807;48.024;11.726;2023-05-01T03:29:07;3.10;;;2.90;;
9536;SDS011;4807;48.024;11.726;2023-05-01T03:32:18;3.00;;;2.73;;
9536;SDS011;4807;48.024;11.726;2023-05-01T03:35:29;6.47;;;3.37;;
9536;SDS011;4807;48.024;11.726;2023-05-01T03:38:37;2.97;;;2.77;;
9536;SDS011;4807;48.024;11.726;2023-05-01T03:46:56;3.50;;;3.20;;
9536;SDS011;4807;48.024;11.726;2023-05-01T03:50:07;3.30;;;3.00;;
9536;SDS011;4807;48.024;11.726;2023-05-01T03:53:19;3.23;;;2.93;;
9536;SDS011;4807;48.024;11.726;2023-05-01T03:56:28;3.70;;;2.67;;
9536;SDS011;4807;48.024;11.726;2023-05-01T03:59:41;3.70;;;2.80;;
9536;SDS011;4807;48.024;11.726;2023-05-01T04:02:52;3.23;;;3.00;;
9536;SDS011;4807;48.024;11.726;2023-05-01T04:06:03;3.53;;;3.23;;
9536;SDS011;4807;48.024;11.726;2023-05-01T04:09:11;3.17;;;2.87;;
9536;SDS011;4807;48.024;11.726;2023-05-01T04:12:20;3.20;;;2.90;;
9536;SDS011;4807;48.024;11.726;2023-05-01T04:15:28;2.97;;;2.70;;
9536;SDS011;4807;48.024;11.726;2023-05-01T04:18:38;3.10;;;2.80;;
9536;SDS011;4807;48.024;11.726;2023-05-01T04:21:46;4.07;;;3.33;;
9536;SDS011;4807;48.024;11.726;2023-05-01T04:24:55;4.47;;;3.20;;
9536;SDS011;4807;48.024;11.726;2023-05-01T04:28:03;3.50;;;2.60;;
9536;SDS011;4807;48.024;11.726;2023-05-01T04:31:12;4.30;;;3.10;;
9536;SDS011;4807;48.024;11.726;2023-05-01T04:34:22;3.83;;;3.53;;
9536;SDS011;4807;48.024;11.726;2023-05-01T04:37:34;3.03;;;2.73;;
9536;SDS011;4807;48.024;11.726;2023-05-01T04:40:43;2.70;;;2.50;;
9536;SDS011;4807;48.024;11.726;2023-05-01T04:43:51;3.77;;;3.47;;
9536;SDS011;4807;48.024;11.726;2023-05-01T04:47:00;4.60;;;4.07;;
9536;SDS011;4807;48.024;11.726;2023-05-01T04:50:11;3.70;;;3.40;;
9536;SDS011;4807;48.024;11.726;2023-05-01T04:53:19;3.33;;;3.03;;
9536;SDS011;4807;48.024;11.726;2023-05-01T04:56:28;3.97;;;3.57;;
9536;SDS011;4807;48.024;11.726;2023-05-01T04:59:39;3.30;;;3.00;;
9536;SDS011;4807;48.024;11.726;2023-05-01T05:02:49;3.50;;;3.20;;
9536;SDS011;4807;48.024;11.726;2023-05-01T05:05:58;3.30;;;3.00;;
9536;SDS011;4807;48.024;11.726;2023-05-01T05:09:07;8.37;;;3.13;;
9536;SDS011;4807;48.024;11.726;2023-05-01T05:12:16;5.97;;;3.47;;
9536;SDS011;4807;48.024;11.726;2023-05-01T05:15:24;7.00;;;4.97;;
9536;SDS011;4807;48.024;11.726;2023-05-01T05:18:33;12.63;;;8.47;;
9536;SDS011;4807;48.024;11.726;2023-05-01T05:21:43;14.57;;;10.07;;
9536;SDS011;4807;48.024;11.726;2023-05-01T05:24:51;8.97;;;6.13;;
9536;SDS011;4807;48.024;11.726;2023-05-01T05:28:01;4.03;;;3.73;;
9536;SDS011;4807;48.024;11.726;2023-05-01T05:31:09;4.57;;;4.18;;
9536;SDS011;4807;48.024;11.726;2023-05-01T05:34:17;3.40;;;3.00;;
9536;SDS011;4807;48.024;11.726;2023-05-01T05:37:27;3.20;;;2.90;;
9536;SDS011;4807;48.024;11.726;2023-05-01T05:40:36;3.27;;;2.97;;
9536;SDS011;4807;48.024;11.726;2023-05-01T05:43:44;2.83;;;2.40;;
9536;SDS011;4807;48.024;11.726;2023-05-01T05:46:53;3.37;;;3.07;;
9536;SDS011;4807;48.024;11.726;2023-05-01T05:50:08;4.73;;;3.60;;
9536;SDS011;4807;48.024;11.726;2023-05-01T05:53:20;3.43;;;3.07;;
9536;SDS011;4807;48.024;11.726;2023-05-01T05:56:32;3.80;;;3.50;;
9536;SDS011;4807;48.024;11.726;2023-05-01T05:59:40;5.47;;;3.60;;
9536;SDS011;4807;48.024;11.726;2023-05-01T06:02:52;4.13;;;3.50;;
9536;SDS011;4807;48.024;11.726;2023-05-01T06:06:03;3.23;;;3.03;;
9536;SDS011;4807;48.024;11.726;2023-05-01T06:09:14;3.47;;;3.20;;
9536;SDS011;4807;48.024;11.726;2023-05-01T06:12:24;3.37;;;3.03;;
9536;SDS011;4807;48.024;11.726;2023-05-01T06:15:33;3.20;;;2.90;;
9536;SDS011;4807;48.024;11.726;2023-05-01T06:18:43;3.53;;;2.83;;
9536;SDS011;4807;48.024;11.726;2023-05-01T06:21:52;3.10;;;2.90;;
9536;SDS011;4807;48.024;11.726;2023-05-01T06:25:03;3.43;;;3.10;;
9536;SDS011;4807;48.024;11.726;2023-05-01T06:28:14;3.50;;;3.20;;
9536;SDS011;4807;48.024;11.726;2023-05-01T06:31:23;3.30;;;3.00;;
9536;SDS011;4807;48.024;11.726;2023-05-01T06:34:34;3.00;;;2.80;;
9536;SDS011;4807;48.024;11.726;2023-05-01T06:37:44;4.33;;;3.23;;
9536;SDS011;4807;48.024;11.726;2023-05-01T06:40:54;3.33;;;2.97;;
9536;SDS011;4807;48.024;11.726;2023-05-01T06:44:03;4.87;;;2.97;;
9536;SDS011;4807;48.024;11.726;2023-05-01T06:47:13;3.13;;;2.87;;
9536;SDS011;4807;48.024;11.726;2023-05-01T06:50:22;3.47;;;2.90;;
9536;SDS011;4807;48.024;11.726;2023-05-01T06:53:31;4.13;;;3.70;;
9536;SDS011;4807;48.024;11.726;2023-05-01T06:56:42;5.13;;;3.53;;
9536;SDS011;4807;48.024;11.726;2023-05-01T06:59:51;3.20;;;2.83;;
9536;SDS011;4807;48.024;11.726;2023-05-01T07:03:01;5.60;;;2.97;;
9536;SDS011;4807;48.024;11.726;2023-05-01T07:06:11;3.20;;;2.90;;
9536;SDS011;4807;48.024;11.726;2023-05-01T07:09:20;3.20;;;2.90;;
9536;SDS011;4807;48.024;11.726;2023-05-01T07:12:31;3.67;;;3.00;;
9536;SDS011;4807;48.024;11.726;2023-05-01T07:15:40;4.60;;;2.80;;
9536;SDS011;4807;48.024;11.726;2023-05-01T07:18:48;4.00;;;3.63;;
9536;SDS011;4807;48.024;11.726;2023-05-01T07:21:57;5.10;;;3.20;;
9536;SDS011;4807;48.024;11.726;2023-05-01T07:25:05;3.63;;;3.33;;
9536;SDS011;4807;48.024;11.726;2023-05-01T07:28:16;4.37;;;2.97;;
9536;SDS011;4807;48.024;11.726;2023-05-01T07:31:27;3.27;;;2.87;;
9536;SDS011;4807;48.024;11.726;2023-05-01T07:34:35;2.87;;;2.67;;
9536;SDS011;4807;48.024;11.726;2023-05-01T07:37:43;2.97;;;2.77;;
9536;SDS011;4807;48.024;11.726;2023-05-01T07:40:52;4.63;;;2.80;;
9536;SDS011;4807;48.024;11.726;2023-05-01T07:44:02;3.40;;;3.00;;
9536;SDS011;4807;48.024;11.726;2023-05-01T07:47:11;4.47;;;3.30;;
9536;SDS011;4807;48.024;11.726;2023-05-01T07:50:19;3.30;;;3.10;;
9536;SDS011;4807;48.024;11.726;2023-05-01T07:53:28;3.80;;;3.50;;
9536;SDS011;4807;48.024;11.726;2023-05-01T07:56:36;3.17;;;2.90;;
9536;SDS011;4807;48.024;11.726;2023-05-01T07:59:47;3.17;;;2.87;;
9536;SDS011;4807;48.024;11.726;2023-05-01T08:03:01;3.70;;;3.03;;
9536;SDS011;4807;48.024;11.726;2023-05-01T08:06:09;4.30;;;3.87;;
9536;SDS011;4807;48.024;11.726;2023-05-01T08:09:18;3.73;;;3.43;;
9536;SDS011;4807;48.024;11.726;2023-05-01T08:12:27;3.53;;;3.23;;
9536;SDS011;4807;48.024;11.726;2023-05-01T08:15:37;3.80;;;3.50;;
9536;SDS011;4807;48.024;11.726;2023-05-01T08:18:48;3.47;;;3.17;;
9536;SDS011;4807;48.024;11.726;2023-05-01T08:21:57;3.90;;;3.60;;
9536;SDS011;4807;48.024;11.726;2023-05-01T08:25:06;3.67;;;3.37;;
9536;SDS011;4807;48.024;11.726;2023-05-01T08:28:15;3.57;;;3.27;;
9536;SDS011;4807;48.024;11.726;2023-05-01T08:31:25;3.30;;;3.00;;
9536;SDS011;4807;48.024;11.726;2023-05-01T08:34:33;3.60;;;3.30;;
9536;SDS011;4807;48.024;11.726;2023-05-01T08:37:41;3.10;;;2.90;;
9536;SDS011;4807;48.024;11.726;2023-05-01T08:40:50;3.43;;;3.13;;
9536;SDS011;4807;48.024;11.726;2023-05-01T08:44:02;3.37;;;3.07;;
9536;SDS011;4807;48.024;11.726;2023-05-01T08:47:14;3.87;;;3.23;;
9536;SDS011;4807;48.024;11.726;2023-05-01T08:50:24;3.17;;;2.90;;
9536;SDS011;4807;48.024;11.726;2023-05-01T08:53:34;3.83;;;3.53;;
9536;SDS011;4807;48.024;11.726;2023-05-01T08:56:45;3.53;;;3.30;;
9536;SDS011;4807;48.024;11.726;2023-05-01T08:59:54;4.23;;;3.40;;
9536;SDS011;4807;48.024;11.726;2023-05-01T09:03:06;3.60;;;3.20;;
9536;SDS011;4807;48.024;11.726;2023-05-01T09:06:18;3.53;;;3.23;;
9536;SDS011;4807;48.024;11.726;2023-05-01T09:09:29;4.73;;;3.80;;
9536;SDS011;4807;48.024;11.726;2023-05-01T09:12:39;4.07;;;3.67;;
9536;SDS011;4807;48.024;11.726;2023-05-01T09:15:50;3.93;;;3.63;;
9536;SDS011;4807;48.024;11.726;2023-05-01T09:19:00;3.60;;;3.30;;
9536;SDS011;4807;48.024;11.726;2023-05-01T09:22:08;4.17;;;3.77;;
9536;SDS011;4807;48.024;11.726;2023-05-01T09:25:17;4.27;;;3.87;;
9536;SDS011;4807;48.024;11.726;2023-05-01T09:28:38;3.53;;;3.23;;
9536;SDS011;4807;48.024;11.726;2023-05-01T09:31:48;3.57;;;3.27;;
9536;SDS011;4807;48.024;11.726;2023-05-01T09:35:09;3.60;;;3.30;;
9536;SDS011;4807;48.024;11.726;2023-05-01T09:38:20;3.70;;;3.40;;
9536;SDS011;4807;48.024;11.726;2023-05-01T09:41:30;3.77;;;3.47;;
9536;SDS011;4807;48.024;11.726;2023-05-01T09:44:39;3.93;;;3.63;;
9536;SDS011;4807;48.024;11.726;2023-05-01T09:47:50;3.73;;;3.43;;
9536;SDS011;4807;48.024;11.726;2023-05-01T09:51:00;3.67;;;3.33;;
9536;SDS011;4807;48.024;11.726;2023-05-01T09:54:27;4.00;;;3.60;;
9536;SDS011;4807;48.024;11.726;2023-05-01T09:57:35;3.63;;;3.33;;
9536;SDS011;4807;48.024;11.726;2023-05-01T10:00:47;4.07;;;3.67;;
9536;SDS011;4807;48.024;11.726;2023-05-01T10:03:56;4.63;;;4.23;;
9536;SDS011;4807;48.024;11.726;2023-05-01T10:07:11;4.27;;;3.97;;
9536;SDS011;4807;48.024;11.726;2023-05-01T10:10:21;4.77;;;4.43;;
9536;SDS011;4807;48.024;11.726;2023-05-01T10:13:29;4.80;;;4.30;;
9536;SDS011;4807;48.024;11.726;2023-05-01T10:16:37;3.47;;;3.17;;
9536;SDS011;4807;48.024;11.726;2023-05-01T10:19:46;4.77;;;4.30;;
9536;SDS011;4807;48.024;11.726;2023-05-01T10:22:57;4.63;;;4.33;;
9536;SDS011;4807;48.024;11.726;2023-05-01T10:26:07;5.00;;;4.60;;
9536;SDS011;4807;48.024;11.726;2023-05-01T10:29:21;4.83;;;4.43;;
9536;SDS011;4807;48.024;11.726;2023-05-01T10:32:30;4.30;;;3.90;;
9536;SDS011;4807;48.024;11.726;2023-05-01T10:35:39;4.70;;;4.30;;
9536;SDS011;4807;48.024;11.726;2023-05-01T10:38:56;4.10;;;3.80;;
9536;SDS011;4807;48.024;11.726;2023-05-01T10:42:04;4.30;;;3.90;;
9536;SDS011;4807;48.024;11.726;2023-05-01T10:45:29;4.70;;;4.30;;
9536;SDS011;4807;48.024;11.726;2023-05-01T10:48:52;4.77;;;4.37;;
9536;SDS011;4807;48.024;11.726;2023-05-01T10:52:04;5.40;;;4.90;;
9536;SDS011;4807;48.024;11.726;2023-05-01T10:55:32;4.73;;;4.33;;
9536;SDS011;4807;48.024;11.726;2023-05-01T10:58:54;4.57;;;4.17;;
9536;SDS011;4807;48.024;11.726;2023-05-01T11:02:13;4.27;;;3.97;;
9536;SDS011;4807;48.024;11.726;2023-05-01T11:09:34;5.73;;;4.30;;
9536;SDS011;4807;48.024;11.726;2023-05-01T11:12:48;5.07;;;4.67;;
9536;SDS011;4807;48.024;11.726;2023-05-01T11:15:58;4.90;;;4.50;;
9536;SDS011;4807;48.024;11.726;2023-05-01T11:19:45;5.30;;;4.40;;
9536;SDS011;4807;48.024;11.726;2023-05-01T11:22:57;5.20;;;4.70;;
9536;SDS011;4807;48.024;11.726;2023-05-01T11:26:06;5.53;;;5.00;;
9536;SDS011;4807;48.024;11.726;2023-05-01T11:29:16;5.37;;;4.87;;
9536;SDS011;4807;48.024;11.726;2023-05-01T11:32:25;6.37;;;4.80;;
9536;SDS011;4807;48.024;11.726;2023-05-01T11:35:35;5.47;;;4.97;;
9536;SDS011;4807;48.024;11.726;2023-05-01T11:38:50;5.43;;;4.93;;
9536;SDS011;4807;48.024;11.726;2023-05-01T11:42:05;5.33;;;4.83;;
9536;SDS011;4807;48.024;11.726;2023-05-01T11:45:17;5.90;;;5.40;;
9536;SDS011;4807;48.024;11.726;2023-05-01T11:48:29;6.10;;;5.00;;
9536;SDS011;4807;48.024;11.726;2023-05-01T11:51:38;10.20;;;5.80;;
9536;SDS011;4807;48.024;11.726;2023-05-01T11:54:47;6.43;;;5.83;;
9536;SDS011;4807;48.024;11.726;2023-05-01T11:57:55;6.37;;;5.77;;
9536;SDS011;4807;48.024;11.726;2023-05-01T12:01:05;7.00;;;6.37;;
9536;SDS011;4807;48.024;11.726;2023-05-01T12:04:22;6.80;;;6.20;;
9536;SDS011;4807;48.024;11.726;2023-05-01T12:07:37;6.30;;;5.70;;
9536;SDS011;4807;48.024;11.726;2023-05-01T12:10:46;7.13;;;6.07;;
9536;SDS011;4807;48.024;11.726;2023-05-01T12:13:56;7.03;;;5.90;;
9536;SDS011;4807;48.024;11.726;2023-05-01T12:17:06;6.93;;;6.23;;
9536;SDS011;4807;48.024;11.726;2023-05-01T12:20:25;6.47;;;5.77;;
9536;SDS011;4807;48.024;11.726;2023-05-01T12:23:42;5.60;;;5.10;;
9536;SDS011;4807;48.024;11.726;2023-05-01T12:26:58;6.67;;;6.07;;
9536;SDS011;4807;48.024;11.726;2023-05-01T12:30:09;7.20;;;6.50;;
9536;SDS011;4807;48.024;11.726;2023-05-01T12:33:20;6.87;;;6.17;;
9536;SDS011;4807;48.024;11.726;2023-05-01T12:36:29;5.73;;;5.23;;
9536;SDS011;4807;48.024;11.726;2023-05-01T12:39:41;6.70;;;6.07;;
9536;SDS011;4807;48.024;11.726;2023-05-01T12:42:54;6.77;;;5.77;;
9536;SDS011;4807;48.024;11.726;2023-05-01T12:46:04;6.33;;;5.73;;
9536;SDS011;4807;48.024;11.726;2023-05-01T12:49:22;6.93;;;6.23;;
9536;SDS011;4807;48.024;11.726;2023-05-01T12:52:31;8.23;;;6.37;;
9536;SDS011;4807;48.024;11.726;2023-05-01T12:55:43;6.97;;;6.27;;
9536;SDS011;4807;48.024;11.726;2023-05-01T12:58:53;7.03;;;6.32;;
9536;SDS011;4807;48.024;11.726;2023-05-01T13:02:04;6.77;;;6.13;;
9536;SDS011;4807;48.024;11.726;2023-05-01T13:05:15;5.63;;;5.13;;
9536;SDS011;4807;48.024;11.726;2023-05-01T13:08:24;5.83;;;5.23;;
9536;SDS011;4807;48.024;11.726;2023-05-01T13:11:36;5.90;;;5.37;;
9536;SDS011;4807;48.024;11.726;2023-05-01T13:14:45;5.50;;;5.00;;
9536;SDS011;4807;48.024;11.726;2023-05-01T13:17:54;6.13;;;5.53;;
9536;SDS011;4807;48.024;11.726;2023-05-01T13:21:13;7.03;;;6.03;;
9536;SDS011;4807;48.024;11.726;2023-05-01T13:24:24;6.10;;;5.10;;
9536;SDS011;4807;48.024;11.726;2023-05-01T13:27:46;6.13;;;5.53;;
9536;SDS011;4807;48.024;11.726;2023-05-01T13:30:56;6.23;;;5.63;;
9536;SDS011;4807;48.024;11.726;2023-05-01T13:34:04;6.60;;;6.00;;
9536;SDS011;4807;48.024;11.726;2023-05-01T13:37:15;6.40;;;5.57;;
9536;SDS011;4807;48.024;11.726;2023-05-01T13:40:24;6.50;;;5.87;;
9536;SDS011;4807;48.024;11.726;2023-05-01T13:43:34;4.87;;;4.43;;
9536;SDS011;4807;48.024;11.726;2023-05-01T13:46:43;5.50;;;5.00;;
9536;SDS011;4807;48.024;11.726;2023-05-01T13:49:53;5.30;;;4.80;;
9536;SDS011;4807;48.024;11.726;2023-05-01T13:53:04;6.23;;;5.13;;
9536;SDS011;4807;48.024;11.726;2023-05-01T13:56:13;5.90;;;4.90;;
9536;SDS011;4807;48.024;11.726;2023-05-01T13:59:22;8.10;;;5.53;;
9536;SDS011;4807;48.024;11.726;2023-05-01T14:02:31;5.63;;;5.13;;
9536;SDS011;4807;48.024;11.726;2023-05-01T14:05:39;5.67;;;4.50;;
9536;SDS011;4807;48.024;11.726;2023-05-01T14:08:50;5.67;;;5.10;;
9536;SDS011;4807;48.024;11.726;2023-05-01T14:11:59;5.57;;;5.13;;
9536;SDS011;4807;48.024;11.726;2023-05-01T14:15:08;5.67;;;5.17;;
9536;SDS011;4807;48.024;11.726;2023-05-01T14:18:19;5.03;;;4.63;;
9536;SDS011;4807;48.024;11.726;2023-05-01T14:21:28;4.97;;;4.57;;
9536;SDS011;4807;48.024;11.726;2023-05-01T14:24:39;5.27;;;4.53;;
9536;SDS011;4807;48.024;11.726;2023-05-01T14:27:48;4.77;;;4.37;;
9536;SDS011;4807;48.024;11.726;2023-05-01T14:30:56;5.57;;;4.90;;
9536;SDS011;4807;48.024;11.726;2023-05-01T14:34:04;5.40;;;4.33;;
9536;SDS011;4807;48.024;11.726;2023-05-01T14:37:13;3.90;;;3.60;;
9536;SDS011;4807;48.024;11.726;2023-05-01T14:40:24;5.03;;;4.10;;
9536;SDS011;4807;48.024;11.726;2023-05-01T14:43:34;4.10;;;3.70;;
9536;SDS011;4807;48.024;11.726;2023-05-01T14:46:42;3.97;;;3.53;;
9536;SDS011;4807;48.024;11.726;2023-05-01T14:49:54;4.20;;;3.80;;
9536;SDS011;4807;48.024;11.726;2023-05-01T14:53:03;3.90;;;3.60;;
9536;SDS011;4807;48.024;11.726;2023-05-01T14:56:13;3.60;;;3.30;;
9536;SDS011;4807;48.024;11.726;2023-05-01T14:59:21;4.07;;;3.70;;
9536;SDS011;4807;48.024;11.726;2023-05-01T15:02:29;4.40;;;4.00;;
9536;SDS011;4807;48.024;11.726;2023-05-01T15:05:38;4.67;;;4.27;;
9536;SDS011;4807;48.024;11.726;2023-05-01T15:08:47;3.90;;;3.40;;
9536;SDS011;4807;48.024;11.726;2023-05-01T15:11:56;4.87;;;3.67;;
9536;SDS011;4807;48.024;11.726;2023-05-01T15:15:05;3.70;;;3.40;;
9536;SDS011;4807;48.024;11.726;2023-05-01T15:18:15;4.23;;;3.70;;
9536;SDS011;4807;48.024;11.726;2023-05-01T15:21:24;3.50;;;3.20;;
9536;SDS011;4807;48.024;11.726;2023-05-01T15:24:32;3.97;;;3.63;;
9536;SDS011;4807;48.024;11.726;2023-05-01T15:27:41;3.50;;;3.20;;
9536;SDS011;4807;48.024;11.726;2023-05-01T15:30:51;3.87;;;3.40;;
9536;SDS011;4807;48.024;11.726;2023-05-01T15:33:59;3.47;;;3.17;;
9536;SDS011;4807;48.024;11.726;2023-05-01T15:37:08;3.53;;;3.23;;
9536;SDS011;4807;48.024;11.726;2023-05-01T15:40:19;3.43;;;3.10;;
9536;SDS011;4807;48.024;11.726;2023-05-01T15:43:29;3.27;;;3.07;;
9536;SDS011;4807;48.024;11.726;2023-05-01T15:46:37;3.73;;;3.43;;
9536;SDS011;4807;48.024;11.726;2023-05-01T15:49:46;3.53;;;3.23;;
9536;SDS011;4807;48.024;11.726;2023-05-01T15:52:55;3.97;;;3.50;;
9536;SDS011;4807;48.024;11.726;2023-05-01T15:56:04;5.23;;;3.80;;
9536;SDS011;4807;48.024;11.726;2023-05-01T15:59:16;3.47;;;3.17;;
9536;SDS011;4807;48.024;11.726;2023-05-01T16:02:25;4.07;;;3.67;;
9536;SDS011;4807;48.024;11.726;2023-05-01T16:05:44;3.90;;;3.57;;
9536;SDS011;4807;48.024;11.726;2023-05-01T16:08:56;4.03;;;3.63;;
9536;SDS011;4807;48.024;11.726;2023-05-01T16:12:07;4.83;;;3.93;;
9536;SDS011;4807;48.024;11.726;2023-05-01T16:15:20;4.63;;;4.17;;
9536;SDS011;4807;48.024;11.726;2023-05-01T16:18:31;5.83;;;4.30;;
9536;SDS011;4807;48.024;11.726;2023-05-01T16:21:41;4.97;;;4.57;;
9536;SDS011;4807;48.024;11.726;2023-05-01T16:24:50;5.00;;;4.60;;
9536;SDS011;4807;48.024;11.726;2023-05-01T16:27:58;5.33;;;4.83;;
9536;SDS011;4807;48.024;11.726;2023-05-01T16:31:12;6.13;;;5.17;;
9536;SDS011;4807;48.024;11.726;2023-05-01T16:34:33;5.77;;;5.27;;
9536;SDS011;4807;48.024;11.726;2023-05-01T16:37:45;6.37;;;5.77;;
9536;SDS011;4807;48.024;11.726;2023-05-01T16:40:53;6.53;;;5.93;;
9536;SDS011;4807;48.024;11.726;2023-05-01T16:44:01;6.63;;;5.47;;
9536;SDS011;4807;48.024;11.726;2023-05-01T16:47:11;6.53;;;6.00;;
9536;SDS011;4807;48.024;11.726;2023-05-01T16:50:20;8.10;;;6.43;;
9536;SDS011;4807;48.024;11.726;2023-05-01T16:53:29;7.50;;;6.43;;
9536;SDS011;4807;48.024;11.726;2023-05-01T16:56:37;8.13;;;6.50;;
9536;SDS011;4807;48.024;11.726;2023-05-01T16:59:45;8.10;;;7.40;;
9536;SDS011;4807;48.024;11.726;2023-05-01T17:02:55;8.33;;;7.23;;
9536;SDS011;4807;48.024;11.726;2023-05-01T17:06:04;8.00;;;7.20;;
9536;SDS011;4807;48.024;11.726;2023-05-01T17:09:13;9.00;;;7.60;;
9536;SDS011;4807;48.024;11.726;2023-05-01T17:12:32;10.60;;;7.83;;
9536;SDS011;4807;48.024;11.726;2023-05-01T17:15:40;7.50;;;6.80;;
9536;SDS011;4807;48.024;11.726;2023-05-01T17:18:52;9.50;;;8.60;;
9536;SDS011;4807;48.024;11.726;2023-05-01T17:22:01;9.83;;;8.93;;
9536;SDS011;4807;48.024;11.726;2023-05-01T17:25:11;9.33;;;8.33;;
9536;SDS011;4807;48.024;11.726;2023-05-01T17:28:20;10.87;;;9.63;;
9536;SDS011;4807;48.024;11.726;2023-05-01T17:31:31;10.77;;;8.67;;
9536;SDS011;4807;48.024;11.726;2023-05-01T17:34:42;8.83;;;7.93;;
9536;SDS011;4807;48.024;11.726;2023-05-01T17:37:50;9.17;;;8.20;;
9536;SDS011;4807;48.024;11.726;2023-05-01T17:40:59;8.33;;;7.53;;
9536;SDS011;4807;48.024;11.726;2023-05-01T17:44:08;8.70;;;7.80;;
9536;SDS011;4807;48.024;11.726;2023-05-01T17:47:16;8.83;;;8.03;;
9536;SDS011;4807;48.024;11.726;2023-05-01T17:50:26;9.10;;;8.30;;
9536;SDS011;4807;48.024;11.726;2023-05-01T17:53:35;10.20;;;8.57;;
9536;SDS011;4807;48.024;11.726;2023-05-01T17:56:43;10.43;;;8.20;;
9536;SDS011;4807;48.024;11.726;2023-05-01T17:59:51;8.47;;;7.60;;
9536;SDS011;4807;48.024;11.726;2023-05-01T18:03:00;8.80;;;7.90;;
9536;SDS011;4807;48.024;11.726;2023-05-01T18:06:11;7.63;;;7.00;;
9536;SDS011;4807;48.024;11.726;2023-05-01T18:09:20;8.33;;;7.40;;
9536;SDS011;4807;48.024;11.726;2023-05-01T18:12:28;6.57;;;6.07;;
9536;SDS011;4807;48.024;11.726;2023-05-01T18:15:37;6.13;;;5.47;;
9536;SDS011;4807;48.024;11.726;2023-05-01T18:18:45;4.77;;;4.17;;
9536;SDS011;4807;48.024;11.726;2023-05-01T18:21:55;5.30;;;4.90;;
9536;SDS011;4807;48.024;11.726;2023-05-01T18:25:04;5.67;;;5.17;;
9536;SDS011;4807;48.024;11.726;2023-05-01T18:28:14;4.63;;;4.33;;
9536;SDS011;4807;48.024;11.726;2023-05-01T18:31:24;5.10;;;4.70;;
9536;SDS011;4807;48.024;11.726;2023-05-01T18:34:33;4.40;;;3.90;;
9536;SDS011;4807;48.024;11.726;2023-05-01T18:37:42;4.40;;;3.30;;
9536;SDS011;4807;48.024;11.726;2023-05-01T18:40:52;2.40;;;2.20;;
9536;SDS011;4807;48.024;11.726;2023-05-01T18:44:00;2.60;;;2.40;;
9536;SDS011;4807;48.024;11.726;2023-05-01T18:47:09;2.03;;;1.60;;
9536;SDS011;4807;48.024;11.726;2023-05-01T18:50:18;2.30;;;2.00;;
9536;SDS011;4807;48.024;11.726;2023-05-01T18:53:29;2.50;;;1.70;;
9536;SDS011;4807;48.024;11.726;2023-05-01T18:56:38;2.20;;;2.00;;
9536;SDS011;4807;48.024;11.726;2023-05-01T18:59:47;1.73;;;1.60;;
9536;SDS011;4807;48.024;11.726;2023-05-01T19:02:55;2.13;;;1.63;;
9536;SDS011;4807;48.024;11.726;2023-05-01T19:06:04;2.60;;;2.40;;
9536;SDS011;4807;48.024;11.726;2023-05-01T19:09:17;2.47;;;2.27;;
9536;SDS011;4807;48.024;11.726;2023-05-01T19:12:25;2.23;;;1.80;;
9536;SDS011;4807;48.024;11.726;2023-05-01T19:15:34;3.03;;;2.73;;
9536;SDS011;4807;48.024;11.726;2023-05-01T19:18:42;2.70;;;2.23;;
9536;SDS011;4807;48.024;11.726;2023-05-01T19:21:53;2.33;;;2.13;;
9536;SDS011;4807;48.024;11.726;2023-05-01T19:25:04;2.20;;;1.73;;
9536;SDS011;4807;48.024;11.726;2023-05-01T19:28:13;1.70;;;1.60;;
9536;SDS011;4807;48.024;11.726;2023-05-01T19:31:22;1.97;;;1.57;;
9536;SDS011;4807;48.024;11.726;2023-05-01T19:34:31;2.30;;;2.00;;
9536;SDS011;4807;48.024;11.726;2023-05-01T19:37:39;1.77;;;1.40;;